sensor_id;sensor_type;location;lat;lon;timestamp;temperature;humidity
63017;DHT22;50274;45.640;11.756;2023-07-20T00:00:19;24.90;72.60
63017;DHT22;50274;45.640;11.756;2023-07-20T00:02:44;24.90;72.60
63017;DHT22;50274;45.640;11.756;2023-07-20T00:05:10;24.90;72.60
63017;DHT22;50274;45.640;11.756;2023-07-20T01:08:27;24.60;74.10
63017;DHT22;50274;45.640;11.756;2023-07-20T01:11:04;24.60;74.10
63017;DHT22;50274;45.640;11.756;2023-07-20T01:13:31;24.70;74.00
63017;DHT22;50274;45.640;11.756;2023-07-20T01:16:00;24.60;74.10
63017;DHT22;50274;45.640;11.756;2023-07-20T01:18:26;24.70;74.10
63017;DHT22;50274;45.640;11.756;2023-07-20T01:20:59;24.60;74.20
63017;DHT22;50274;45.640;11.756;2023-07-20T01:24:00;24.70;74.40
63017;DHT22;50274;45.640;11.756;2023-07-20T01:26:49;24.70;74.40
63017;DHT22;50274;45.640;11.756;2023-07-20T01:32:11;24.60;74.40
63017;DHT22;50274;45.640;11.756;2023-07-20T01:34:38;24.60;74.40
63017;DHT22;50274;45.640;11.756;2023-07-20T01:37:06;24.60;74.40
63017;DHT22;50274;45.640;11.756;2023-07-20T01:39:32;24.60;74.60
63017;DHT22;50274;45.640;11.756;2023-07-20T01:42:01;24.60;74.70
63017;DHT22;50274;45.640;11.756;2023-07-20T01:44:27;24.60;74.70
63017;DHT22;50274;45.640;11.756;2023-07-20T01:46:56;24.50;75.00
63017;DHT22;50274;45.640;11.756;2023-07-20T01:49:24;24.40;75.00
63017;DHT22;50274;45.640;11.756;2023-07-20T01:51:50;24.40;75.00
63017;DHT22;50274;45.640;11.756;2023-07-20T01:54:18;24.40;75.10
63017;DHT22;50274;45.640;11.756;2023-07-20T01:56:44;24.40;75.10
63017;DHT22;50274;45.640;11.756;2023-07-20T01:59:12;24.40;75.00
63017;DHT22;50274;45.640;11.756;2023-07-20T02:01:40;24.50;75.00
63017;DHT22;50274;45.640;11.756;2023-07-20T02:04:09;24.50;75.10
63017;DHT22;50274;45.640;11.756;2023-07-20T02:06:34;24.50;75.10
63017;DHT22;50274;45.640;11.756;2023-07-20T02:09:00;24.50;75.10
63017;DHT22;50274;45.640;11.756;2023-07-20T02:11:28;24.50;75.30
63017;DHT22;50274;45.640;11.756;2023-07-20T02:13:54;24.40;75.30
63017;DHT22;50274;45.640;11.756;2023-07-20T02:16:24;24.40;75.30
63017;DHT22;50274;45.640;11.756;2023-07-20T02:18:50;24.40;75.30
63017;DHT22;50274;45.640;11.756;2023-07-20T02:21:16;24.40;75.30
63017;DHT22;50274;45.640;11.756;2023-07-20T02:23:44;24.40;75.20
63017;DHT22;50274;45.640;11.756;2023-07-20T02:26:10;24.30;75.30
63017;DHT22;50274;45.640;11.756;2023-07-20T02:28:36;24.40;75.30
63017;DHT22;50274;45.640;11.756;2023-07-20T02:31:02;24.30;75.30
63017;DHT22;50274;45.640;11.756;2023-07-20T02:33:28;24.40;75.20
63017;DHT22;50274;45.640;11.756;2023-07-20T02:35:55;24.40;75.00
63017;DHT22;50274;45.640;11.756;2023-07-20T02:38:21;24.40;74.90
63017;DHT22;50274;45.640;11.756;2023-07-20T02:40:50;24.40;74.90
63017;DHT22;50274;45.640;11.756;2023-07-20T02:43:16;24.40;74.80
63017;DHT22;50274;45.640;11.756;2023-07-20T02:45:46;24.40;74.80
63017;DHT22;50274;45.640;11.756;2023-07-20T02:48:12;24.30;74.90
63017;DHT22;50274;45.640;11.756;2023-07-20T02:50:41;24.30;74.80
63017;DHT22;50274;45.640;11.756;2023-07-20T02:53:07;24.30;74.70
63017;DHT22;50274;45.640;11.756;2023-07-20T02:55:33;24.20;74.70
63017;DHT22;50274;45.640;11.756;2023-07-20T02:57:59;24.10;74.90
63017;DHT22;50274;45.640;11.756;2023-07-20T03:00:24;24.10;75.00
63017;DHT22;50274;45.640;11.756;2023-07-20T03:02:51;24.10;74.90
63017;DHT22;50274;45.640;11.756;2023-07-20T03:05:23;24.10;74.90
63017;DHT22;50274;45.640;11.756;2023-07-20T03:07:53;24.10;74.90
63017;DHT22;50274;45.640;11.756;2023-07-20T03:10:19;24.10;74.90
63017;DHT22;50274;45.640;11.756;2023-07-20T03:12:48;24.10;75.00
63017;DHT22;50274;45.640;11.756;2023-07-20T03:15:16;24.10;74.90
63017;DHT22;50274;45.640;11.756;2023-07-20T03:17:46;24.10;74.80
63017;DHT22;50274;45.640;11.756;2023-07-20T03:20:15;24.10;74.80
63017;DHT22;50274;45.640;11.756;2023-07-20T03:22:43;24.10;74.70
63017;DHT22;50274;45.640;11.756;2023-07-20T03:25:11;24.10;74.80
63017;DHT22;50274;45.640;11.756;2023-07-20T03:27:40;24.10;74.80
63017;DHT22;50274;45.640;11.756;2023-07-20T03:30:09;24.10;74.80
63017;DHT22;50274;45.640;11.756;2023-07-20T03:32:40;24.00;74.90
63017;DHT22;50274;45.640;11.756;2023-07-20T03:35:09;24.00;75.00
63017;DHT22;50274;45.640;11.756;2023-07-20T03:37:35;24.00;75.00
63017;DHT22;50274;45.640;11.756;2023-07-20T03:40:04;24.00;75.00
63017;DHT22;50274;45.640;11.756;2023-07-20T03:42:33;24.00;74.80
63017;DHT22;50274;45.640;11.756;2023-07-20T03:45:01;24.00;74.70
63017;DHT22;50274;45.640;11.756;2023-07-20T03:47:30;24.00;74.50
63017;DHT22;50274;45.640;11.756;2023-07-20T03:49:58;24.00;74.30
63017;DHT22;50274;45.640;11.756;2023-07-20T03:52:26;24.00;74.20
63017;DHT22;50274;45.640;11.756;2023-07-20T03:54:57;24.00;74.00
63017;DHT22;50274;45.640;11.756;2023-07-20T03:57:22;24.00;73.80
63017;DHT22;50274;45.640;11.756;2023-07-20T03:59:50;24.00;73.60
63017;DHT22;50274;45.640;11.756;2023-07-20T04:02:21;24.00;73.50
63017;DHT22;50274;45.640;11.756;2023-07-20T04:04:46;23.90;73.50
63017;DHT22;50274;45.640;11.756;2023-07-20T04:07:15;23.80;73.60
63017;DHT22;50274;45.640;11.756;2023-07-20T04:09:46;23.80;73.60
63017;DHT22;50274;45.640;11.756;2023-07-20T04:12:17;23.80;73.70
63017;DHT22;50274;45.640;11.756;2023-07-20T04:14:43;23.80;73.60
63017;DHT22;50274;45.640;11.756;2023-07-20T04:17:11;23.80;73.30
63017;DHT22;50274;45.640;11.756;2023-07-20T04:19:38;23.80;73.10
63017;DHT22;50274;45.640;11.756;2023-07-20T04:22:04;23.70;73.20
63017;DHT22;50274;45.640;11.756;2023-07-20T04:24:33;23.70;73.20
63017;DHT22;50274;45.640;11.756;2023-07-20T04:27:01;23.80;73.20
63017;DHT22;50274;45.640;11.756;2023-07-20T04:29:29;23.80;73.10
63017;DHT22;50274;45.640;11.756;2023-07-20T04:31:57;23.80;73.20
63017;DHT22;50274;45.640;11.756;2023-07-20T04:34:29;23.80;73.30
63017;DHT22;50274;45.640;11.756;2023-07-20T04:36:55;23.80;73.30
63017;DHT22;50274;45.640;11.756;2023-07-20T04:39:24;23.80;73.40
63017;DHT22;50274;45.640;11.756;2023-07-20T04:41:54;23.90;73.40
63017;DHT22;50274;45.640;11.756;2023-07-20T04:44:20;23.90;73.50
63017;DHT22;50274;45.640;11.756;2023-07-20T04:46:46;24.00;73.40
63017;DHT22;50274;45.640;11.756;2023-07-20T04:49:17;23.90;73.30
63017;DHT22;50274;45.640;11.756;2023-07-20T04:51:45;24.00;73.20
63017;DHT22;50274;45.640;11.756;2023-07-20T04:54:13;24.00;73.10
63017;DHT22;50274;45.640;11.756;2023-07-20T04:56:42;24.10;73.00
63017;DHT22;50274;45.640;11.756;2023-07-20T04:59:08;24.10;73.00
63017;DHT22;50274;45.640;11.756;2023-07-20T05:01:39;24.20;72.90
63017;DHT22;50274;45.640;11.756;2023-07-20T05:04:09;24.20;72.60
63017;DHT22;50274;45.640;11.756;2023-07-20T05:06:37;24.30;72.40
63017;DHT22;50274;45.640;11.756;2023-07-20T05:09:04;24.30;72.10
63017;DHT22;50274;45.640;11.756;2023-07-20T05:11:32;24.40;71.90
63017;DHT22;50274;45.640;11.756;2023-07-20T05:14:00;24.50;71.80
63017;DHT22;50274;45.640;11.756;2023-07-20T05:16:26;24.50;71.70
63017;DHT22;50274;45.640;11.756;2023-07-20T05:18:54;24.50;71.50
63017;DHT22;50274;45.640;11.756;2023-07-20T05:21:23;24.60;71.50
63017;DHT22;50274;45.640;11.756;2023-07-20T05:23:49;24.70;71.40
63017;DHT22;50274;45.640;11.756;2023-07-20T05:26:17;24.70;71.30
63017;DHT22;50274;45.640;11.756;2023-07-20T05:28:45;24.70;71.20
63017;DHT22;50274;45.640;11.756;2023-07-20T05:31:13;24.80;70.90
63017;DHT22;50274;45.640;11.756;2023-07-20T05:33:41;24.90;70.60
63017;DHT22;50274;45.640;11.756;2023-07-20T05:36:09;24.90;70.30
63017;DHT22;50274;45.640;11.756;2023-07-20T05:38:37;24.90;69.90
63017;DHT22;50274;45.640;11.756;2023-07-20T05:41:05;25.00;69.50
63017;DHT22;50274;45.640;11.756;2023-07-20T05:43:38;25.10;69.40
63017;DHT22;50274;45.640;11.756;2023-07-20T05:46:05;25.10;69.30
63017;DHT22;50274;45.640;11.756;2023-07-20T05:48:34;25.10;69.20
63017;DHT22;50274;45.640;11.756;2023-07-20T05:51:01;25.20;69.10
63017;DHT22;50274;45.640;11.756;2023-07-20T05:53:29;25.30;68.90
63017;DHT22;50274;45.640;11.756;2023-07-20T05:55:55;25.40;68.90
63017;DHT22;50274;45.640;11.756;2023-07-20T05:58:25;25.50;68.80
63017;DHT22;50274;45.640;11.756;2023-07-20T06:00:54;25.60;68.70
63017;DHT22;50274;45.640;11.756;2023-07-20T06:03:22;25.70;68.60
63017;DHT22;50274;45.640;11.756;2023-07-20T06:05:48;25.80;68.20
63017;DHT22;50274;45.640;11.756;2023-07-20T06:08:17;25.90;68.10
63017;DHT22;50274;45.640;11.756;2023-07-20T06:10:49;26.00;67.90
63017;DHT22;50274;45.640;11.756;2023-07-20T06:13:21;26.10;67.70
63017;DHT22;50274;45.640;11.756;2023-07-20T06:15:50;26.20;67.20
63017;DHT22;50274;45.640;11.756;2023-07-20T06:18:18;26.30;66.80
63017;DHT22;50274;45.640;11.756;2023-07-20T06:20:51;26.50;66.60
63017;DHT22;50274;45.640;11.756;2023-07-20T06:23:20;26.60;66.20
63017;DHT22;50274;45.640;11.756;2023-07-20T06:25:45;26.60;65.90
63017;DHT22;50274;45.640;11.756;2023-07-20T06:28:12;26.70;65.70
63017;DHT22;50274;45.640;11.756;2023-07-20T06:30:40;26.80;65.40
63017;DHT22;50274;45.640;11.756;2023-07-20T06:33:12;26.90;65.30
63017;DHT22;50274;45.640;11.756;2023-07-20T06:35:43;27.00;65.00
63017;DHT22;50274;45.640;11.756;2023-07-20T06:38:11;27.10;64.80
63017;DHT22;50274;45.640;11.756;2023-07-20T06:40:42;27.20;64.40
63017;DHT22;50274;45.640;11.756;2023-07-20T06:43:08;27.30;64.20
63017;DHT22;50274;45.640;11.756;2023-07-20T06:45:39;27.40;63.80
63017;DHT22;50274;45.640;11.756;2023-07-20T06:48:05;27.60;63.70
63017;DHT22;50274;45.640;11.756;2023-07-20T06:50:33;27.60;63.20
63017;DHT22;50274;45.640;11.756;2023-07-20T06:52:59;27.70;63.00
63017;DHT22;50274;45.640;11.756;2023-07-20T06:55:26;27.80;62.60
63017;DHT22;50274;45.640;11.756;2023-07-20T06:57:52;27.90;62.00
63017;DHT22;50274;45.640;11.756;2023-07-20T07:00:18;27.90;61.90
63017;DHT22;50274;45.640;11.756;2023-07-20T07:02:44;28.00;61.60
63017;DHT22;50274;45.640;11.756;2023-07-20T07:05:09;28.10;61.30
63017;DHT22;50274;45.640;11.756;2023-07-20T07:07:35;28.10;61.20
63017;DHT22;50274;45.640;11.756;2023-07-20T07:10:02;28.20;61.00
63017;DHT22;50274;45.640;11.756;2023-07-20T07:12:30;28.30;60.80
63017;DHT22;50274;45.640;11.756;2023-07-20T07:14:56;28.40;60.70
63017;DHT22;50274;45.640;11.756;2023-07-20T07:17:22;28.50;60.40
63017;DHT22;50274;45.640;11.756;2023-07-20T07:19:48;28.50;59.40
63017;DHT22;50274;45.640;11.756;2023-07-20T07:22:21;28.60;59.60
63017;DHT22;50274;45.640;11.756;2023-07-20T07:27:53;28.60;61.30
63017;DHT22;50274;45.640;11.756;2023-07-20T07:30:20;28.60;61.60
63017;DHT22;50274;45.640;11.756;2023-07-20T07:32:49;28.60;61.80
63017;DHT22;50274;45.640;11.756;2023-07-20T07:35:14;28.60;62.00
63017;DHT22;50274;45.640;11.756;2023-07-20T07:37:43;28.60;61.90
63017;DHT22;50274;45.640;11.756;2023-07-20T07:40:13;28.60;61.90
63017;DHT22;50274;45.640;11.756;2023-07-20T07:42:40;28.60;61.80
63017;DHT22;50274;45.640;11.756;2023-07-20T07:45:06;28.60;61.60
63017;DHT22;50274;45.640;11.756;2023-07-20T07:47:35;28.60;61.10
63017;DHT22;50274;45.640;11.756;2023-07-20T07:50:01;28.70;61.10
63017;DHT22;50274;45.640;11.756;2023-07-20T07:52:27;28.80;60.60
63017;DHT22;50274;45.640;11.756;2023-07-20T07:54:53;28.80;60.40
63017;DHT22;50274;45.640;11.756;2023-07-20T07:57:20;28.90;59.00
63017;DHT22;50274;45.640;11.756;2023-07-20T07:59:48;29.10;59.00
63017;DHT22;50274;45.640;11.756;2023-07-20T08:02:16;29.10;58.50
63017;DHT22;50274;45.640;11.756;2023-07-20T08:04:43;29.20;58.10
63017;DHT22;50274;45.640;11.756;2023-07-20T08:07:09;29.30;57.80
63017;DHT22;50274;45.640;11.756;2023-07-20T08:09:37;29.40;56.90
63017;DHT22;50274;45.640;11.756;2023-07-20T08:12:03;29.50;56.90
63017;DHT22;50274;45.640;11.756;2023-07-20T08:14:32;29.60;56.80
63017;DHT22;50274;45.640;11.756;2023-07-20T08:16:58;29.70;56.70
63017;DHT22;50274;45.640;11.756;2023-07-20T08:19:24;29.80;56.90
63017;DHT22;50274;45.640;11.756;2023-07-20T08:21:50;29.90;57.00
63017;DHT22;50274;45.640;11.756;2023-07-20T08:24:16;30.00;56.10
63017;DHT22;50274;45.640;11.756;2023-07-20T08:26:44;30.10;55.70
63017;DHT22;50274;45.640;11.756;2023-07-20T08:29:13;30.10;55.30
63017;DHT22;50274;45.640;11.756;2023-07-20T08:31:41;30.10;55.40
63017;DHT22;50274;45.640;11.756;2023-07-20T08:34:10;30.20;55.30
63017;DHT22;50274;45.640;11.756;2023-07-20T08:36:36;30.20;55.20
63017;DHT22;50274;45.640;11.756;2023-07-20T08:42:17;30.40;53.70
63017;DHT22;50274;45.640;11.756;2023-07-20T08:44:47;30.50;53.40
63017;DHT22;50274;45.640;11.756;2023-07-20T08:47:16;30.60;53.60
63017;DHT22;50274;45.640;11.756;2023-07-20T08:49:53;30.60;53.80
63017;DHT22;50274;45.640;11.756;2023-07-20T08:52:22;30.80;53.80
63017;DHT22;50274;45.640;11.756;2023-07-20T08:54:52;30.80;53.70
63017;DHT22;50274;45.640;11.756;2023-07-20T08:57:23;30.90;53.40
63017;DHT22;50274;45.640;11.756;2023-07-20T08:59:50;31.00;53.60
63017;DHT22;50274;45.640;11.756;2023-07-20T09:02:18;31.10;53.50
63017;DHT22;50274;45.640;11.756;2023-07-20T09:04:45;31.20;53.20
63017;DHT22;50274;45.640;11.756;2023-07-20T09:07:11;31.20;51.80
63017;DHT22;50274;45.640;11.756;2023-07-20T09:09:43;31.30;51.80
63017;DHT22;50274;45.640;11.756;2023-07-20T09:12:15;31.30;49.90
63017;DHT22;50274;45.640;11.756;2023-07-20T09:14:45;31.40;49.70
63017;DHT22;50274;45.640;11.756;2023-07-20T09:17:14;31.40;50.50
63017;DHT22;50274;45.640;11.756;2023-07-20T09:19:48;31.60;50.10
63017;DHT22;50274;45.640;11.756;2023-07-20T09:22:14;31.60;49.40
63017;DHT22;50274;45.640;11.756;2023-07-20T09:24:49;31.70;49.20
63017;DHT22;50274;45.640;11.756;2023-07-20T09:27:18;31.70;49.10
63017;DHT22;50274;45.640;11.756;2023-07-20T09:30:10;31.80;48.90
63017;DHT22;50274;45.640;11.756;2023-07-20T09:32:45;31.90;48.60
63017;DHT22;50274;45.640;11.756;2023-07-20T09:35:21;32.00;47.90
63017;DHT22;50274;45.640;11.756;2023-07-20T09:37:59;32.10;47.60
63017;DHT22;50274;45.640;11.756;2023-07-20T09:40:27;32.20;46.70
63017;DHT22;50274;45.640;11.756;2023-07-20T09:42:54;32.30;46.40
63017;DHT22;50274;45.640;11.756;2023-07-20T09:45:49;32.40;46.90
63017;DHT22;50274;45.640;11.756;2023-07-20T09:48:15;32.50;47.20
63017;DHT22;50274;45.640;11.756;2023-07-20T09:50:48;32.60;47.10
63017;DHT22;50274;45.640;11.756;2023-07-20T09:53:15;32.70;47.00
63017;DHT22;50274;45.640;11.756;2023-07-20T09:55:44;32.80;46.70
63017;DHT22;50274;45.640;11.756;2023-07-20T09:58:14;32.80;46.50
63017;DHT22;50274;45.640;11.756;2023-07-20T10:00:41;32.90;46.00
63017;DHT22;50274;45.640;11.756;2023-07-20T10:03:16;33.00;45.60
63017;DHT22;50274;45.640;11.756;2023-07-20T10:05:46;33.00;45.70
63017;DHT22;50274;45.640;11.756;2023-07-20T10:08:15;33.10;45.70
63017;DHT22;50274;45.640;11.756;2023-07-20T10:10:42;33.10;45.90
63017;DHT22;50274;45.640;11.756;2023-07-20T10:13:21;33.20;45.90
63017;DHT22;50274;45.640;11.756;2023-07-20T10:18:55;33.40;45.20
63017;DHT22;50274;45.640;11.756;2023-07-20T10:21:22;33.40;45.40
63017;DHT22;50274;45.640;11.756;2023-07-20T10:23:49;33.50;45.10
63017;DHT22;50274;45.640;11.756;2023-07-20T10:26:17;33.60;45.30
63017;DHT22;50274;45.640;11.756;2023-07-20T10:28:46;33.60;45.50
63017;DHT22;50274;45.640;11.756;2023-07-20T10:31:15;33.70;45.40
63017;DHT22;50274;45.640;11.756;2023-07-20T10:33:43;33.70;45.40
63017;DHT22;50274;45.640;11.756;2023-07-20T10:36:12;33.80;45.20
63017;DHT22;50274;45.640;11.756;2023-07-20T10:43:46;34.00;43.60
63017;DHT22;50274;45.640;11.756;2023-07-20T10:49:05;34.20;43.50
63017;DHT22;50274;45.640;11.756;2023-07-20T10:51:39;34.30;43.70
63017;DHT22;50274;45.640;11.756;2023-07-20T10:56:41;34.40;43.10
63017;DHT22;50274;45.640;11.756;2023-07-20T11:01:57;34.60;42.50
63017;DHT22;50274;45.640;11.756;2023-07-20T11:04:41;34.70;42.40
63017;DHT22;50274;45.640;11.756;2023-07-20T11:07:07;34.80;41.80
63017;DHT22;50274;45.640;11.756;2023-07-20T11:09:38;34.90;40.60
63017;DHT22;50274;45.640;11.756;2023-07-20T11:12:12;34.90;40.90
63017;DHT22;50274;45.640;11.756;2023-07-20T11:14:55;35.00;40.50
63017;DHT22;50274;45.640;11.756;2023-07-20T11:17:29;35.10;40.30
63017;DHT22;50274;45.640;11.756;2023-07-20T11:19:59;35.10;40.20
63017;DHT22;50274;45.640;11.756;2023-07-20T11:22:30;35.30;40.80
63017;DHT22;50274;45.640;11.756;2023-07-20T11:24:57;35.40;40.90
63017;DHT22;50274;45.640;11.756;2023-07-20T11:27:24;35.50;39.90
63017;DHT22;50274;45.640;11.756;2023-07-20T11:29:54;35.60;39.90
63017;DHT22;50274;45.640;11.756;2023-07-20T11:32:23;35.70;39.60
63017;DHT22;50274;45.640;11.756;2023-07-20T11:34:50;35.70;39.40
63017;DHT22;50274;45.640;11.756;2023-07-20T11:37:20;35.80;39.00
63017;DHT22;50274;45.640;11.756;2023-07-20T11:39:49;35.90;40.20
63017;DHT22;50274;45.640;11.756;2023-07-20T11:42:15;35.90;39.70
63017;DHT22;50274;45.640;11.756;2023-07-20T11:44:51;36.10;40.00
63017;DHT22;50274;45.640;11.756;2023-07-20T11:47:39;36.20;40.30
63017;DHT22;50274;45.640;11.756;2023-07-20T11:50:20;36.30;40.20
63017;DHT22;50274;45.640;11.756;2023-07-20T11:52:54;36.40;40.30
63017;DHT22;50274;45.640;11.756;2023-07-20T11:55:25;36.60;40.50
63017;DHT22;50274;45.640;11.756;2023-07-20T11:58:07;36.60;39.60
63017;DHT22;50274;45.640;11.756;2023-07-20T12:00:35;36.70;38.50
63017;DHT22;50274;45.640;11.756;2023-07-20T12:03:01;36.70;39.50
63017;DHT22;50274;45.640;11.756;2023-07-20T12:05:34;36.70;39.70
63017;DHT22;50274;45.640;11.756;2023-07-20T12:08:00;36.80;39.20
63017;DHT22;50274;45.640;11.756;2023-07-20T12:10:29;36.90;39.40
63017;DHT22;50274;45.640;11.756;2023-07-20T12:13:01;37.00;39.20
63017;DHT22;50274;45.640;11.756;2023-07-20T12:15:32;37.10;37.90
63017;DHT22;50274;45.640;11.756;2023-07-20T12:18:01;37.20;37.00
63017;DHT22;50274;45.640;11.756;2023-07-20T12:20:35;37.20;36.80
63017;DHT22;50274;45.640;11.756;2023-07-20T12:23:09;37.20;35.60
63017;DHT22;50274;45.640;11.756;2023-07-20T12:25:43;37.20;36.20
63017;DHT22;50274;45.640;11.756;2023-07-20T12:28:12;37.30;35.90
63017;DHT22;50274;45.640;11.756;2023-07-20T12:30:42;37.30;35.40
63017;DHT22;50274;45.640;11.756;2023-07-20T12:33:08;37.40;35.90
63017;DHT22;50274;45.640;11.756;2023-07-20T12:35:35;37.40;35.90
63017;DHT22;50274;45.640;11.756;2023-07-20T12:38:01;37.50;35.90
63017;DHT22;50274;45.640;11.756;2023-07-20T12:40:29;37.50;35.80
63017;DHT22;50274;45.640;11.756;2023-07-20T12:42:57;37.60;35.30
63017;DHT22;50274;45.640;11.756;2023-07-20T12:45:25;37.60;35.60
63017;DHT22;50274;45.640;11.756;2023-07-20T12:47:51;37.60;36.00
63017;DHT22;50274;45.640;11.756;2023-07-20T12:50:17;37.70;35.70
63017;DHT22;50274;45.640;11.756;2023-07-20T12:52:45;37.70;35.60
63017;DHT22;50274;45.640;11.756;2023-07-20T12:55:13;37.70;35.80
63017;DHT22;50274;45.640;11.756;2023-07-20T12:57:41;37.80;35.90
63017;DHT22;50274;45.640;11.756;2023-07-20T13:00:10;37.80;35.10
63017;DHT22;50274;45.640;11.756;2023-07-20T13:02:38;37.70;35.20
63017;DHT22;50274;45.640;11.756;2023-07-20T13:05:09;37.80;35.30
63017;DHT22;50274;45.640;11.756;2023-07-20T13:07:40;37.80;35.00
63017;DHT22;50274;45.640;11.756;2023-07-20T13:10:10;37.70;34.90
63017;DHT22;50274;45.640;11.756;2023-07-20T13:12:37;37.70;35.40
63017;DHT22;50274;45.640;11.756;2023-07-20T13:15:05;37.70;35.60
63017;DHT22;50274;45.640;11.756;2023-07-20T13:17:32;37.80;35.30
63017;DHT22;50274;45.640;11.756;2023-07-20T13:20:01;37.80;35.30
63017;DHT22;50274;45.640;11.756;2023-07-20T13:22:32;37.90;34.60
63017;DHT22;50274;45.640;11.756;2023-07-20T13:25:01;37.90;34.50
63017;DHT22;50274;45.640;11.756;2023-07-20T13:27:27;37.90;34.90
63017;DHT22;50274;45.640;11.756;2023-07-20T13:29:55;37.90;35.20
63017;DHT22;50274;45.640;11.756;2023-07-20T13:32:22;37.90;35.30
63017;DHT22;50274;45.640;11.756;2023-07-20T13:34:52;38.00;35.60
63017;DHT22;50274;45.640;11.756;2023-07-20T13:37:23;37.90;34.90
63017;DHT22;50274;45.640;11.756;2023-07-20T13:39:51;37.90;34.40
63017;DHT22;50274;45.640;11.756;2023-07-20T13:42:16;37.70;34.70
63017;DHT22;50274;45.640;11.756;2023-07-20T13:44:42;37.70;35.10
63017;DHT22;50274;45.640;11.756;2023-07-20T13:47:14;37.50;34.70
63017;DHT22;50274;45.640;11.756;2023-07-20T13:49:42;37.30;34.80
63017;DHT22;50274;45.640;11.756;2023-07-20T13:52:10;37.20;35.10
63017;DHT22;50274;45.640;11.756;2023-07-20T13:54:38;37.20;35.60
63017;DHT22;50274;45.640;11.756;2023-07-20T13:57:12;37.10;35.40
63017;DHT22;50274;45.640;11.756;2023-07-20T14:03:02;37.10;35.70
63017;DHT22;50274;45.640;11.756;2023-07-20T14:05:30;37.10;35.40
63017;DHT22;50274;45.640;11.756;2023-07-20T14:07:56;37.00;35.90
63017;DHT22;50274;45.640;11.756;2023-07-20T14:10:25;36.90;36.40
63017;DHT22;50274;45.640;11.756;2023-07-20T14:12:54;36.80;36.70
63017;DHT22;50274;45.640;11.756;2023-07-20T14:15:23;36.70;36.20
63017;DHT22;50274;45.640;11.756;2023-07-20T14:18:08;36.70;36.20
63017;DHT22;50274;45.640;11.756;2023-07-20T14:21:03;36.70;36.30
63017;DHT22;50274;45.640;11.756;2023-07-20T14:23:46;36.70;36.00
63017;DHT22;50274;45.640;11.756;2023-07-20T14:26:17;36.60;36.50
63017;DHT22;50274;45.640;11.756;2023-07-20T14:28:45;36.60;36.50
63017;DHT22;50274;45.640;11.756;2023-07-20T14:31:14;36.40;35.80
63017;DHT22;50274;45.640;11.756;2023-07-20T14:33:42;36.30;36.00
63017;DHT22;50274;45.640;11.756;2023-07-20T14:36:11;36.20;36.50
63017;DHT22;50274;45.640;11.756;2023-07-20T14:38:39;36.20;36.50
63017;DHT22;50274;45.640;11.756;2023-07-20T14:41:32;36.20;36.80
63017;DHT22;50274;45.640;11.756;2023-07-20T14:44:36;36.20;37.20
63017;DHT22;50274;45.640;11.756;2023-07-20T14:47:24;36.20;38.10
63017;DHT22;50274;45.640;11.756;2023-07-20T14:50:06;36.10;37.60
63017;DHT22;50274;45.640;11.756;2023-07-20T14:52:39;36.00;37.10
63017;DHT22;50274;45.640;11.756;2023-07-20T14:55:09;35.90;37.30
63017;DHT22;50274;45.640;11.756;2023-07-20T14:57:37;35.90;37.40
63017;DHT22;50274;45.640;11.756;2023-07-20T15:00:06;35.80;37.60
63017;DHT22;50274;45.640;11.756;2023-07-20T15:02:36;35.80;37.80
63017;DHT22;50274;45.640;11.756;2023-07-20T15:05:06;35.80;38.10
63017;DHT22;50274;45.640;11.756;2023-07-20T15:07:32;35.80;38.20
63017;DHT22;50274;45.640;11.756;2023-07-20T15:10:00;35.70;38.20
63017;DHT22;50274;45.640;11.756;2023-07-20T15:12:29;35.60;38.10
63017;DHT22;50274;45.640;11.756;2023-07-20T15:15:10;35.50;38.40
63017;DHT22;50274;45.640;11.756;2023-07-20T15:17:37;35.40;38.70
63017;DHT22;50274;45.640;11.756;2023-07-20T15:20:09;35.40;39.30
63017;DHT22;50274;45.640;11.756;2023-07-20T15:22:37;35.40;39.50
63017;DHT22;50274;45.640;11.756;2023-07-20T15:25:10;35.20;38.80
63017;DHT22;50274;45.640;11.756;2023-07-20T15:27:42;35.20;38.50
63017;DHT22;50274;45.640;11.756;2023-07-20T15:30:11;35.00;38.80
63017;DHT22;50274;45.640;11.756;2023-07-20T15:32:40;34.90;38.60
63017;DHT22;50274;45.640;11.756;2023-07-20T15:35:09;34.90;38.80
63017;DHT22;50274;45.640;11.756;2023-07-20T15:37:38;34.70;38.80
63017;DHT22;50274;45.640;11.756;2023-07-20T15:40:05;34.70;39.50
63017;DHT22;50274;45.640;11.756;2023-07-20T15:42:32;34.50;40.00
63017;DHT22;50274;45.640;11.756;2023-07-20T15:45:00;34.40;40.70
63017;DHT22;50274;45.640;11.756;2023-07-20T15:47:28;34.30;40.80
63017;DHT22;50274;45.640;11.756;2023-07-20T15:49:54;34.30;40.70
63017;DHT22;50274;45.640;11.756;2023-07-20T15:52:20;34.10;40.90
63017;DHT22;50274;45.640;11.756;2023-07-20T15:54:46;34.10;41.10
63017;DHT22;50274;45.640;11.756;2023-07-20T15:57:11;34.00;41.00
63017;DHT22;50274;45.640;11.756;2023-07-20T15:59:40;33.90;41.40
63017;DHT22;50274;45.640;11.756;2023-07-20T16:02:10;33.80;41.80
63017;DHT22;50274;45.640;11.756;2023-07-20T16:04:40;33.80;41.90
63017;DHT22;50274;45.640;11.756;2023-07-20T16:07:06;33.70;42.10
63017;DHT22;50274;45.640;11.756;2023-07-20T16:09:35;33.70;42.00
63017;DHT22;50274;45.640;11.756;2023-07-20T16:12:05;33.60;42.20
63017;DHT22;50274;45.640;11.756;2023-07-20T16:14:34;33.50;42.60
63017;DHT22;50274;45.640;11.756;2023-07-20T16:17:00;33.40;42.30
63017;DHT22;50274;45.640;11.756;2023-07-20T16:19:32;33.20;42.50
63017;DHT22;50274;45.640;11.756;2023-07-20T16:22:00;33.20;42.90
63017;DHT22;50274;45.640;11.756;2023-07-20T16:24:33;33.20;43.20
63017;DHT22;50274;45.640;11.756;2023-07-20T16:27:02;33.10;43.40
63017;DHT22;50274;45.640;11.756;2023-07-20T16:29:30;33.10;43.60
63017;DHT22;50274;45.640;11.756;2023-07-20T16:31:59;33.10;43.50
63017;DHT22;50274;45.640;11.756;2023-07-20T16:34:26;33.10;43.50
63017;DHT22;50274;45.640;11.756;2023-07-20T16:36:54;33.10;43.40
63017;DHT22;50274;45.640;11.756;2023-07-20T16:39:21;33.00;43.40
63017;DHT22;50274;45.640;11.756;2023-07-20T16:41:47;32.90;43.40
63017;DHT22;50274;45.640;11.756;2023-07-20T16:44:15;32.90;43.70
63017;DHT22;50274;45.640;11.756;2023-07-20T16:46:47;32.80;43.70
63017;DHT22;50274;45.640;11.756;2023-07-20T16:49:13;32.70;44.00
63017;DHT22;50274;45.640;11.756;2023-07-20T16:51:42;32.70;44.30
63017;DHT22;50274;45.640;11.756;2023-07-20T16:54:10;32.60;44.50
63017;DHT22;50274;45.640;11.756;2023-07-20T16:56:39;32.60;44.40